createdAt,value
2022-12-27T00:02:38.892Z,100435.41
2022-12-27T00:05:45.110Z,100435.69
2022-12-27T00:08:49.897Z,100427.41
2022-12-27T00:11:57.993Z,100425.84
2022-12-27T00:15:06.301Z,100432.28
2022-12-27T00:18:10.056Z,100425.56
2022-12-27T00:21:15.391Z,100428.41
2022-12-27T00:24:19.265Z,100429.44
2022-12-27T00:27:22.929Z,100428.75
2022-12-27T00:30:28.023Z,100420.72
2022-12-27T00:33:33.594Z,100411.44
2022-12-27T00:36:37.313Z,100421.34
2022-12-27T00:39:41.073Z,100419.16
2022-12-27T00:42:45.220Z,100413.13
2022-12-27T00:45:50.500Z,100398.94
2022-12-27T00:48:54.129Z,100396.31
2022-12-27T00:51:58.153Z,100397.78
2022-12-27T00:55:01.758Z,100388.44
2022-12-27T00:58:05.698Z,100397.97
2022-12-27T01:01:14.020Z,100383.75
2022-12-27T01:04:17.887Z,100382.59
2022-12-27T01:07:23.096Z,100385.19
2022-12-27T01:10:26.619Z,100391.56
2022-12-27T01:13:30.355Z,100412.84
2022-12-27T01:16:35.716Z,100409.56
2022-12-27T01:19:40.513Z,100399.03
2022-12-27T01:22:44.152Z,100395.06
2022-12-27T01:25:47.840Z,100381.56
2022-12-27T01:28:52.364Z,100383.66
2022-12-27T01:31:57.466Z,100379.06
2022-12-27T01:35:02.581Z,100376.81
2022-12-27T01:38:06.144Z,100371.22
2022-12-27T01:41:28.143Z,100370.66
2022-12-27T01:44:56.500Z,100365.59
2022-12-27T01:48:06.070Z,100365.69
2022-12-27T01:51:11.439Z,100360.81
2022-12-27T01:54:15.224Z,100367.44
2022-12-27T01:57:18.762Z,100365.78
2022-12-27T02:00:22.575Z,100362.16
2022-12-27T02:03:34.570Z,100358.00
2022-12-27T02:06:41.063Z,100360.59
2022-12-27T02:09:49.562Z,100357.69
2022-12-27T02:12:53.282Z,100359.44
2022-12-27T02:15:56.918Z,100356.13
2022-12-27T02:19:02.018Z,100360.78
2022-12-27T02:22:55.609Z,100362.38
2022-12-27T02:26:35.352Z,100359.47
2022-12-27T02:30:05.423Z,100352.47
2022-12-27T02:33:15.218Z,100351.44
2022-12-27T02:36:25.052Z,100352.50
2022-12-27T02:39:30.743Z,100346.25
2022-12-27T02:43:00.233Z,100346.03
2022-12-27T02:46:30.519Z,100338.66
2022-12-27T02:49:53.099Z,100334.41
2022-12-27T02:53:09.192Z,100343.56
2022-12-27T02:56:45.915Z,100347.09
2022-12-27T03:00:21.118Z,100341.06
2022-12-27T03:03:44.035Z,100347.63
2022-12-27T03:07:01.501Z,100348.03
2022-12-27T03:10:35.857Z,100350.16
2022-12-27T03:14:04.172Z,100354.91
2022-12-27T03:17:14.356Z,100342.38
2022-12-27T03:20:38.119Z,100339.41
2022-12-27T03:24:02.206Z,100330.50
2022-12-27T03:27:18.403Z,100329.94
2022-12-27T03:30:51.019Z,100325.06
2022-12-27T03:34:04.688Z,100325.38
2022-12-27T03:37:32.262Z,100312.81
2022-12-27T03:41:01.813Z,100325.25
2022-12-27T03:44:24.345Z,100321.28
2022-12-27T03:47:38.039Z,100311.56
2022-12-27T03:50:46.482Z,100311.47
2022-12-27T03:53:55.853Z,100315.25
2022-12-27T03:57:02.531Z,100323.22
2022-12-27T04:00:07.334Z,100334.19
2022-12-27T04:03:16.697Z,100343.00
2022-12-27T04:06:20.642Z,100332.38
2022-12-27T04:09:43.385Z,100335.41
2022-12-27T04:13:04.206Z,100324.22
2022-12-27T04:16:26.541Z,100323.94
2022-12-27T04:19:47.644Z,100327.34
2022-12-27T04:23:08.792Z,100318.47
2022-12-27T04:26:31.192Z,100326.41
2022-12-27T04:29:52.384Z,100328.41
2022-12-27T04:33:13.479Z,100322.34
2022-12-27T04:36:16.945Z,100338.25
2022-12-27T04:39:20.563Z,100329.31
2022-12-27T04:42:43.118Z,100339.56
2022-12-27T04:46:04.162Z,100323.94
2022-12-27T04:49:28.345Z,100336.63
2022-12-27T04:52:49.148Z,100345.03
2022-12-27T04:55:54.474Z,100342.00
2022-12-27T04:59:17.374Z,100352.69
2022-12-27T05:02:21.660Z,100347.28
2022-12-27T05:05:26.381Z,100350.06
2022-12-27T05:08:48.887Z,100361.13
2022-12-27T05:12:15.353Z,100357.00
2022-12-27T05:15:20.460Z,100343.78
2022-12-27T05:18:24.660Z,100344.91
2022-12-27T05:21:28.541Z,100341.78
2022-12-27T05:24:49.603Z,100341.81
2022-12-27T05:27:53.148Z,100335.53
2022-12-27T05:31:03.208Z,100337.09
2022-12-27T05:34:07.636Z,100350.69
2022-12-27T05:37:11.319Z,100341.47
2022-12-27T05:40:15.173Z,100343.88
2022-12-27T05:43:18.932Z,100349.50
2022-12-27T05:46:24.341Z,100356.31
2022-12-27T05:49:28.121Z,100345.59
2022-12-27T05:52:36.188Z,100351.22
2022-12-27T05:55:43.141Z,100352.56
2022-12-27T05:58:47.096Z,100363.66
2022-12-27T06:01:53.258Z,100361.47
2022-12-27T06:04:57.014Z,100358.34
2022-12-27T06:08:01.383Z,100366.78
2022-12-27T06:11:07.058Z,100362.53
2022-12-27T06:14:12.082Z,100357.28
2022-12-27T06:17:17.282Z,100357.34
2022-12-27T06:20:21.809Z,100355.28
2022-12-27T06:23:25.500Z,100356.31
2022-12-27T06:26:31.355Z,100353.03
2022-12-27T06:29:35.659Z,100367.44
2022-12-27T06:32:41.033Z,100378.13
2022-12-27T06:35:44.834Z,100370.13
2022-12-27T06:38:48.971Z,100372.13
2022-12-27T06:41:55.529Z,100368.25
2022-12-27T06:44:59.279Z,100363.16
2022-12-27T06:48:04.581Z,100347.34
2022-12-27T06:51:10.911Z,100344.88
2022-12-27T06:54:14.719Z,100352.06
2022-12-27T06:57:18.553Z,100366.81
2022-12-27T07:00:22.435Z,100358.69
2022-12-27T07:03:27.698Z,100353.53
2022-12-27T07:06:33.339Z,100351.44
2022-12-27T07:09:37.092Z,100352.38
2022-12-27T07:12:40.963Z,100349.56
2022-12-27T07:15:45.590Z,100339.50
2022-12-27T07:18:51.233Z,100340.84
2022-12-27T07:21:55.048Z,100329.31
2022-12-27T07:24:58.781Z,100328.53
2022-12-27T07:28:02.513Z,100337.63
2022-12-27T07:31:09.455Z,100335.38
2022-12-27T07:34:14.849Z,100335.66
2022-12-27T07:37:18.755Z,100351.94
2022-12-27T07:40:22.546Z,100349.31
2022-12-27T07:43:26.223Z,100339.38
2022-12-27T07:46:30.739Z,100333.19
2022-12-27T07:49:35.939Z,100332.00
2022-12-27T07:52:39.759Z,100334.44
2022-12-27T07:55:43.591Z,100335.94
2022-12-27T07:58:49.053Z,100335.44
2022-12-27T08:02:08.102Z,100335.28
2022-12-27T08:05:13.463Z,100350.16
2022-12-27T08:08:20.089Z,100353.00
2022-12-27T08:11:23.785Z,100345.06
2022-12-27T08:14:27.668Z,100343.88
2022-12-27T08:17:31.988Z,100339.91
2022-12-27T08:20:37.490Z,100339.78
2022-12-27T08:23:41.399Z,100335.47
2022-12-27T08:26:45.109Z,100327.34
2022-12-27T08:29:48.920Z,100323.84
2022-12-27T08:32:52.689Z,100327.41
2022-12-27T08:35:58.929Z,100316.41
2022-12-27T08:39:02.621Z,100313.59
2022-12-27T08:42:06.808Z,100310.47
2022-12-27T08:45:11.673Z,100310.03
2022-12-27T08:48:16.446Z,100302.56
2022-12-27T08:51:31.637Z,100294.91
2022-12-27T08:54:36.765Z,100300.75
2022-12-27T08:57:40.544Z,100295.13
2022-12-27T09:00:44.282Z,100293.84
2022-12-27T09:03:48.176Z,100290.09
2022-12-27T09:06:53.564Z,100287.63
2022-12-27T09:09:57.399Z,100283.41
2022-12-27T09:13:01.087Z,100276.47
2022-12-27T09:16:08.314Z,100278.47
2022-12-27T09:19:12.381Z,100270.22
2022-12-27T09:22:17.675Z,100267.78
2022-12-27T09:25:21.426Z,100267.78
2022-12-27T09:28:25.170Z,100255.50
2022-12-27T09:31:29.596Z,100249.09
2022-12-27T09:34:33.382Z,100239.56
2022-12-27T09:37:38.620Z,100239.13
2022-12-27T09:40:52.326Z,100225.28
2022-12-27T09:44:01.734Z,100223.34
2022-12-27T09:47:12.394Z,100226.28
2022-12-27T09:50:21.544Z,100223.31
2022-12-27T09:53:39.472Z,100212.41
2022-12-27T09:57:17.846Z,100214.06
2022-12-27T10:00:16.183Z,100205.09
2022-12-27T10:03:23.522Z,100202.75
2022-12-27T10:06:49.109Z,100200.25
2022-12-27T10:10:02.532Z,100205.22
2022-12-27T10:13:15.250Z,100199.94
2022-12-27T10:16:30.447Z,100185.63
2022-12-27T10:19:46.284Z,100188.75
2022-12-27T10:22:54.649Z,100185.72
2022-12-27T10:26:01.758Z,100167.88
2022-12-27T10:29:18.910Z,100166.72
2022-12-27T10:32:23.151Z,100164.66
2022-12-27T10:35:29.212Z,100163.38
2022-12-27T10:38:35.588Z,100164.59
2022-12-27T10:41:53.245Z,100158.66
2022-12-27T10:45:26.884Z,100146.00
2022-12-27T10:48:41.506Z,100148.91
2022-12-27T10:51:57.398Z,100131.50
2022-12-27T10:55:01.121Z,100133.09
2022-12-27T10:58:37.243Z,100124.38
2022-12-27T11:01:41.508Z,100113.06
2022-12-27T11:04:59.841Z,100107.41
2022-12-27T11:08:21.683Z,100110.44
2022-12-27T11:11:28.404Z,100101.25
2022-12-27T11:14:33.556Z,100101.47
2022-12-27T11:17:39.786Z,100107.63
2022-12-27T11:20:49.304Z,100118.28
2022-12-27T11:23:55.549Z,100102.38
2022-12-27T11:27:00.713Z,100092.81
2022-12-27T11:30:07.798Z,100088.31
2022-12-27T11:33:24.999Z,100086.16
2022-12-27T11:36:32.677Z,100088.31
2022-12-27T11:39:41.795Z,100080.41
2022-12-27T11:42:49.144Z,100078.09
2022-12-27T11:45:56.165Z,100081.25
2022-12-27T11:49:00.653Z,100073.53
2022-12-27T11:52:47.207Z,100074.72
2022-12-27T11:56:19.258Z,100073.72
2022-12-27T11:59:47.506Z,100078.16
2022-12-27T12:03:13.482Z,100076.84
2022-12-27T12:06:28.802Z,100072.00
2022-12-27T12:10:00.594Z,100068.88
2022-12-27T12:13:39.363Z,100061.78
2022-12-27T12:17:10.160Z,100060.84
2022-12-27T12:20:50.938Z,100066.19
2022-12-27T12:24:38.042Z,100063.38
2022-12-27T12:27:55.238Z,100067.19
2022-12-27T12:31:13.041Z,100070.97
2022-12-27T12:34:40.013Z,100072.09
2022-12-27T12:38:03.730Z,100072.88
2022-12-27T12:41:36.792Z,100065.41
2022-12-27T12:45:17.616Z,100077.19
2022-12-27T12:48:41.512Z,100079.22
2022-12-27T12:52:05.152Z,100089.00
2022-12-27T12:55:45.190Z,100083.50
2022-12-27T12:58:58.706Z,100085.78
2022-12-27T13:02:18.086Z,100074.44
2022-12-27T13:05:32.860Z,100084.06
2022-12-27T13:08:44.385Z,100086.47
2022-12-27T13:12:00.475Z,100088.13
2022-12-27T13:15:30.491Z,100090.81
2022-12-27T13:18:45.012Z,100084.06
2022-12-27T13:22:01.035Z,100095.22
2022-12-27T13:25:20.769Z,100092.91
2022-12-27T13:28:40.602Z,100093.78
2022-12-27T13:31:54.540Z,100104.13
2022-12-27T13:35:20.194Z,100087.50
2022-12-27T13:38:38.675Z,100093.50
2022-12-27T13:42:07.072Z,100096.94
2022-12-27T13:45:28.005Z,100093.97
2022-12-27T13:49:00.555Z,100098.44
2022-12-27T13:52:18.430Z,100102.19
2022-12-27T13:55:48.242Z,100094.78
2022-12-27T13:59:07.275Z,100101.78
2022-12-27T14:02:39.407Z,100105.22
2022-12-27T14:06:07.940Z,100103.66
2022-12-27T14:09:48.801Z,100105.25
2022-12-27T14:13:01.266Z,100103.47
2022-12-27T14:16:23.233Z,100106.00
2022-12-27T14:19:59.173Z,100100.09
2022-12-27T14:23:28.594Z,100103.50
2022-12-27T14:27:23.971Z,100094.00
2022-12-27T14:31:13.042Z,100096.63
2022-12-27T14:34:59.873Z,100090.41
2022-12-27T14:38:41.962Z,100100.31
2022-12-27T14:42:34.144Z,100104.63
2022-12-27T14:46:06.767Z,100110.47
2022-12-27T14:49:52.423Z,100118.25
2022-12-27T14:53:25.877Z,100129.81
2022-12-27T14:56:35.352Z,100128.84
2022-12-27T14:59:50.819Z,100126.88
2022-12-27T15:03:19.939Z,100146.63
2022-12-27T15:06:36.011Z,100149.72
2022-12-27T15:09:50.291Z,100152.03
2022-12-27T15:13:05.790Z,100159.94
2022-12-27T15:16:17.169Z,100162.53
2022-12-27T15:19:43.524Z,100167.47
2022-12-27T15:22:59.199Z,100174.84
2022-12-27T15:26:23.155Z,100177.47
2022-12-27T15:29:39.429Z,100186.00
2022-12-27T15:32:53.649Z,100180.91
2022-12-27T15:36:04.032Z,100193.56
2022-12-27T15:39:28.543Z,100196.22
2022-12-27T15:42:55.674Z,100214.47
2022-12-27T15:46:12.746Z,100211.00
2022-12-27T15:49:33.084Z,100214.09
2022-12-27T15:52:53.333Z,100218.72
2022-12-27T15:56:29.465Z,100224.59
2022-12-27T15:59:39.155Z,100232.31
2022-12-27T16:02:55.160Z,100228.03
2022-12-27T16:05:59.760Z,100223.78
2022-12-27T16:09:37.048Z,100228.03
2022-12-27T16:12:41.783Z,100233.16
2022-12-27T16:15:53.088Z,100234.41
2022-12-27T16:19:11.681Z,100240.81
2022-12-27T16:22:26.704Z,100236.72
2022-12-27T16:25:34.438Z,100239.34
2022-12-27T16:28:39.659Z,100243.25
2022-12-27T16:31:46.989Z,100238.63
2022-12-27T16:34:55.766Z,100241.25
2022-12-27T16:38:03.733Z,100242.03
2022-12-27T16:41:18.205Z,100246.84
2022-12-27T16:44:38.247Z,100251.44
2022-12-27T16:48:18.164Z,100258.28
2022-12-27T16:51:37.214Z,100263.50
2022-12-27T16:54:54.948Z,100271.38
2022-12-27T16:58:33.417Z,100285.34
2022-12-27T17:01:58.864Z,100291.25
2022-12-27T17:05:02.851Z,100291.47
2022-12-27T17:08:26.123Z,100295.94
2022-12-27T17:11:31.233Z,100296.75
2022-12-27T17:14:38.759Z,100308.63
2022-12-27T17:17:48.160Z,100304.59
2022-12-27T17:21:01.768Z,100319.34
2022-12-27T17:24:11.757Z,100313.22
2022-12-27T17:27:28.579Z,100310.81
2022-12-27T17:30:46.382Z,100304.59
2022-12-27T17:34:01.688Z,100296.63
2022-12-27T17:37:15.732Z,100299.56
2022-12-27T17:40:32.438Z,100303.16
2022-12-27T17:44:06.100Z,100298.59
2022-12-27T17:47:24.442Z,100302.94
2022-12-27T17:50:28.792Z,100310.28
2022-12-27T17:53:50.063Z,100312.38
2022-12-27T17:57:21.483Z,100312.59
2022-12-27T18:00:27.661Z,100310.91
2022-12-27T18:03:37.341Z,100317.84
2022-12-27T18:06:41.243Z,100324.06
2022-12-27T18:09:48.765Z,100323.50
2022-12-27T18:12:56.699Z,100326.31
2022-12-27T18:16:00.818Z,100327.84
2022-12-27T18:19:05.212Z,100331.91
2022-12-27T18:22:20.456Z,100332.56
2022-12-27T18:25:25.867Z,100336.03
2022-12-27T18:28:34.119Z,100341.41
2022-12-27T18:31:47.511Z,100343.81
2022-12-27T18:34:55.870Z,100335.88
2022-12-27T18:37:59.692Z,100342.00
2022-12-27T18:41:07.421Z,100338.09
2022-12-27T18:44:22.993Z,100343.53
2022-12-27T18:47:30.668Z,100337.91
2022-12-27T18:50:36.040Z,100343.84
2022-12-27T18:53:41.215Z,100356.03
2022-12-27T18:56:44.920Z,100354.94
2022-12-27T19:00:02.852Z,100352.25
2022-12-27T19:03:17.014Z,100359.78
2022-12-27T19:06:20.895Z,100355.72
2022-12-27T19:09:28.178Z,100358.16
2022-12-27T19:12:35.511Z,100372.47
2022-12-27T19:15:44.108Z,100371.22
2022-12-27T19:18:53.034Z,100368.19
2022-12-27T19:21:57.705Z,100356.84
2022-12-27T19:25:01.956Z,100372.38
2022-12-27T19:28:21.414Z,100383.63
2022-12-27T19:31:26.777Z,100386.94
2022-12-27T19:34:34.238Z,100381.78
2022-12-27T19:37:38.098Z,100382.56
2022-12-27T19:40:42.058Z,100375.25
2022-12-27T19:43:47.639Z,100392.38
2022-12-27T19:46:52.890Z,100387.97
2022-12-27T19:49:56.605Z,100390.59
2022-12-27T19:53:00.590Z,100381.75
2022-12-27T19:56:04.359Z,100387.56
2022-12-27T19:59:08.370Z,100386.75
2022-12-27T20:02:13.716Z,100389.50
2022-12-27T20:05:17.958Z,100391.84
2022-12-27T20:08:44.939Z,100408.00
2022-12-27T20:11:50.757Z,100410.34
2022-12-27T20:14:54.503Z,100420.38
2022-12-27T20:17:59.832Z,100423.44
2022-12-27T20:21:03.499Z,100430.31
2022-12-27T20:24:08.088Z,100439.13
2022-12-27T20:27:11.912Z,100444.97
2022-12-27T20:30:15.931Z,100442.59
2022-12-27T20:33:21.053Z,100448.84
2022-12-27T20:36:25.722Z,100450.06
2022-12-27T20:39:29.414Z,100457.09
2022-12-27T20:42:33.252Z,100453.22
2022-12-27T20:45:37.086Z,100459.72
2022-12-27T20:48:44.092Z,100459.84
2022-12-27T20:51:47.832Z,100464.53
2022-12-27T20:54:52.654Z,100473.78
2022-12-27T20:57:56.559Z,100472.41
2022-12-27T21:01:06.654Z,100465.91
2022-12-27T21:04:12.311Z,100459.03
2022-12-27T21:07:16.119Z,100451.03
2022-12-27T21:10:20.048Z,100456.56
2022-12-27T21:13:23.772Z,100454.19
2022-12-27T21:16:29.829Z,100461.22
2022-12-27T21:19:35.053Z,100465.91
2022-12-27T21:22:38.893Z,100461.78
2022-12-27T21:25:42.743Z,100459.97
2022-12-27T21:28:47.384Z,100456.94
2022-12-27T21:31:51.982Z,100456.00
2022-12-27T21:34:57.250Z,100459.75
2022-12-27T21:38:01.081Z,100469.16
2022-12-27T21:41:07.014Z,100466.19
2022-12-27T21:44:11.043Z,100466.31
2022-12-27T21:47:14.791Z,100478.91
2022-12-27T21:50:20.169Z,100483.88
2022-12-27T21:53:24.635Z,100479.69
2022-12-27T21:56:29.055Z,100481.06
2022-12-27T21:59:32.929Z,100487.59
2022-12-27T22:02:36.765Z,100494.19
2022-12-27T22:05:42.088Z,100498.19
2022-12-27T22:08:47.745Z,100498.19
2022-12-27T22:11:51.499Z,100492.44
2022-12-27T22:14:55.192Z,100483.75
2022-12-27T22:17:58.997Z,100488.84
2022-12-27T22:21:07.711Z,100475.84
2022-12-27T22:24:17.362Z,100467.47
2022-12-27T22:27:21.423Z,100477.28
2022-12-27T22:30:25.513Z,100483.97
2022-12-27T22:33:29.317Z,100484.03
2022-12-27T22:36:35.273Z,100492.44
2022-12-27T22:39:39.008Z,100494.34
2022-12-27T22:42:42.911Z,100496.63
2022-12-27T22:45:53.470Z,100491.66
2022-12-27T22:48:59.839Z,100503.09
2022-12-27T22:52:05.233Z,100508.22
2022-12-27T22:55:09.354Z,100512.25
2022-12-27T22:58:13.033Z,100521.16
2022-12-27T23:01:19.104Z,100519.22
2022-12-27T23:04:23.035Z,100525.25
2022-12-27T23:08:05.653Z,100526.91
2022-12-27T23:10:52.152Z,100528.81
2022-12-27T23:13:57.348Z,100538.25
2022-12-27T23:17:01.137Z,100532.34
2022-12-27T23:20:05.671Z,100539.00
2022-12-27T23:23:10.820Z,100532.13
2022-12-27T23:26:15.931Z,100538.34
2022-12-27T23:29:19.737Z,100526.47
2022-12-27T23:32:23.511Z,100521.97
2022-12-27T23:35:27.438Z,100524.06
2022-12-27T23:38:32.683Z,100521.94
2022-12-27T23:41:37.414Z,100526.38
2022-12-27T23:44:41.090Z,100523.50
2022-12-27T23:47:44.914Z,100528.53
2022-12-27T23:50:49.305Z,100529.59
2022-12-27T23:53:54.771Z,100533.69
2022-12-27T23:56:58.789Z,100527.19
